createdAt,value
2023-02-02T00:00:36.612Z,1012.72
2023-02-02T00:01:36.609Z,1012.73
2023-02-02T00:02:36.642Z,1012.73
2023-02-02T00:03:36.546Z,1012.78
2023-02-02T00:04:36.507Z,1012.82
2023-02-02T00:05:36.475Z,1012.78
2023-02-02T00:06:36.451Z,1012.80
2023-02-02T00:07:36.432Z,1012.73
2023-02-02T00:08:36.401Z,1012.75
2023-02-02T00:09:36.371Z,1012.81
2023-02-02T00:10:36.338Z,1012.76
2023-02-02T00:11:36.313Z,1012.78
2023-02-02T00:12:36.283Z,1012.75
2023-02-02T00:13:36.268Z,1012.76
2023-02-02T00:14:36.252Z,1012.77
2023-02-02T00:15:36.209Z,1012.78
2023-02-02T00:16:36.235Z,1012.79
2023-02-02T00:17:36.154Z,1012.84
2023-02-02T00:18:36.126Z,1012.80
2023-02-02T00:19:36.104Z,1012.81
2023-02-02T00:20:36.068Z,1012.85
2023-02-02T00:21:36.053Z,1012.77
2023-02-02T00:22:36.020Z,1012.77
2023-02-02T00:23:35.995Z,1012.75
2023-02-02T00:24:35.960Z,1012.87
2023-02-02T00:25:35.937Z,1012.78
2023-02-02T00:26:35.979Z,1012.79
2023-02-02T00:27:35.883Z,1012.84
2023-02-02T00:28:35.852Z,1012.82
2023-02-02T00:29:35.843Z,1012.83
2023-02-02T00:30:35.855Z,1012.83
2023-02-02T00:31:35.814Z,1012.78
2023-02-02T00:32:35.746Z,1012.80
2023-02-02T00:33:35.723Z,1012.82
2023-02-02T00:34:35.695Z,1012.81
2023-02-02T00:35:35.668Z,1012.81
2023-02-02T00:36:35.635Z,1012.82
2023-02-02T00:37:35.611Z,1012.85
2023-02-02T00:38:35.578Z,1012.86
2023-02-02T00:39:35.558Z,1012.89
2023-02-02T00:40:35.542Z,1012.83
2023-02-02T00:41:35.501Z,1012.84
2023-02-02T00:42:35.468Z,1012.79
2023-02-02T00:43:35.451Z,1012.84
2023-02-02T00:44:35.426Z,1012.82
2023-02-02T00:45:35.423Z,1012.85
2023-02-02T00:46:35.388Z,1012.86
2023-02-02T00:47:35.341Z,1012.83
2023-02-02T00:48:35.324Z,1012.87
2023-02-02T00:49:35.286Z,1012.84
2023-02-02T00:50:35.254Z,1012.85
2023-02-02T00:51:35.237Z,1012.87
2023-02-02T00:52:35.201Z,1012.89
2023-02-02T00:53:35.179Z,1012.90
2023-02-02T00:54:35.147Z,1012.92
2023-02-02T00:55:35.128Z,1012.90
2023-02-02T00:56:35.094Z,1012.90
2023-02-02T00:57:35.067Z,1012.89
2023-02-02T00:58:35.047Z,1012.87
2023-02-02T00:59:35.017Z,1012.95
2023-02-02T01:00:34.984Z,1012.94
2023-02-02T01:01:34.954Z,1012.94
2023-02-02T01:02:34.952Z,1012.96
2023-02-02T01:03:34.908Z,1012.92
2023-02-02T01:04:34.872Z,1012.95
2023-02-02T01:05:34.861Z,1012.91
2023-02-02T01:06:34.839Z,1012.98
2023-02-02T01:07:34.797Z,1012.96
2023-02-02T01:08:34.764Z,1012.98
2023-02-02T01:09:34.745Z,1012.99
2023-02-02T01:10:34.723Z,1013.01
2023-02-02T01:11:34.691Z,1013.02
2023-02-02T01:12:34.661Z,1013.04
2023-02-02T01:13:34.635Z,1013.02
2023-02-02T01:14:34.611Z,1013.03
2023-02-02T01:15:34.579Z,1013.01
2023-02-02T01:16:34.568Z,1013.05
2023-02-02T01:17:34.521Z,1013.05
2023-02-02T01:18:34.511Z,1013.04
2023-02-02T01:19:34.476Z,1013.07
2023-02-02T01:20:34.434Z,1013.04
2023-02-02T01:21:34.414Z,1013.05
2023-02-02T01:22:34.385Z,1013.03
2023-02-02T01:23:34.365Z,1013.09
2023-02-02T01:24:34.344Z,1013.04
2023-02-02T01:25:34.305Z,1013.10
2023-02-02T01:26:34.378Z,1013.03
2023-02-02T01:27:34.253Z,1013.04
2023-02-02T01:28:34.221Z,1013.05
2023-02-02T01:29:34.197Z,1013.04
2023-02-02T01:30:34.167Z,1013.11
2023-02-02T01:31:34.190Z,1013.09
2023-02-02T01:32:34.113Z,1013.12
2023-02-02T01:33:34.086Z,1013.17
2023-02-02T01:34:34.080Z,1013.19
2023-02-02T01:35:34.040Z,1013.18
2023-02-02T01:36:34.004Z,1013.18
2023-02-02T01:37:33.982Z,1013.21
2023-02-02T01:38:33.950Z,1013.21
2023-02-02T01:39:34.401Z,1013.24
2023-02-02T01:40:33.902Z,1013.19
2023-02-02T01:41:33.872Z,1013.20
2023-02-02T01:42:33.851Z,1013.24
2023-02-02T01:43:33.820Z,1013.23
2023-02-02T01:44:33.790Z,1013.24
2023-02-02T01:45:33.807Z,1013.28
2023-02-02T01:46:33.746Z,1013.28
2023-02-02T01:47:33.712Z,1013.22
2023-02-02T01:48:33.688Z,1013.25
2023-02-02T01:49:33.652Z,1013.23
2023-02-02T01:50:33.646Z,1013.26
2023-02-02T01:51:33.602Z,1013.25
2023-02-02T01:52:33.573Z,1013.26
2023-02-02T01:53:33.549Z,1013.30
2023-02-02T01:54:33.515Z,1013.30
2023-02-02T01:55:33.490Z,1013.27
2023-02-02T01:56:33.470Z,1013.29
2023-02-02T01:57:33.442Z,1013.33
2023-02-02T01:58:33.415Z,1013.32
2023-02-02T01:59:33.385Z,1013.31
2023-02-02T02:00:33.357Z,1013.34
2023-02-02T02:01:33.386Z,1013.28
2023-02-02T02:02:33.348Z,1013.36
2023-02-02T02:03:33.277Z,1013.36
2023-02-02T02:04:33.241Z,1013.39
2023-02-02T02:05:33.225Z,1013.39
2023-02-02T02:06:33.213Z,1013.38
2023-02-02T02:07:33.168Z,1013.45
2023-02-02T02:08:33.152Z,1013.45
2023-02-02T02:09:33.116Z,1013.44
2023-02-02T02:10:33.086Z,1013.46
2023-02-02T02:11:33.060Z,1013.48
2023-02-02T02:12:33.036Z,1013.41
2023-02-02T02:13:33.005Z,1013.47
2023-02-02T02:14:32.974Z,1013.40
2023-02-02T02:15:32.954Z,1013.44
2023-02-02T02:16:32.993Z,1013.42
2023-02-02T02:17:32.898Z,1013.43
2023-02-02T02:18:32.867Z,1013.41
2023-02-02T02:19:32.861Z,1013.46
2023-02-02T02:20:32.820Z,1013.41
2023-02-02T02:21:32.793Z,1013.37
2023-02-02T02:22:32.781Z,1013.40
2023-02-02T02:23:32.737Z,1013.41
2023-02-02T02:24:32.714Z,1013.36
2023-02-02T02:25:32.723Z,1013.41
2023-02-02T02:26:32.707Z,1013.37
2023-02-02T02:27:32.627Z,1013.41
2023-02-02T02:28:32.595Z,1013.40
2023-02-02T02:29:32.581Z,1013.45
2023-02-02T02:30:32.644Z,1013.45
2023-02-02T02:31:32.615Z,1013.44
2023-02-02T02:32:32.499Z,1013.42
2023-02-02T02:33:32.479Z,1013.44
2023-02-02T02:34:32.440Z,1013.43
2023-02-02T02:35:32.413Z,1013.43
2023-02-02T02:36:32.383Z,1013.41
2023-02-02T02:37:32.358Z,1013.42
2023-02-02T02:38:32.353Z,1013.40
2023-02-02T02:39:32.303Z,1013.46
2023-02-02T02:40:32.272Z,1013.48
2023-02-02T02:41:32.256Z,1013.57
2023-02-02T02:42:32.219Z,1013.56
2023-02-02T02:43:32.210Z,1013.53
2023-02-02T02:44:32.167Z,1013.54
2023-02-02T02:45:32.139Z,1013.52
2023-02-02T02:46:32.161Z,1013.51
2023-02-02T02:47:32.090Z,1013.54
2023-02-02T02:48:32.069Z,1013.51
2023-02-02T02:49:32.035Z,1013.48
2023-02-02T02:50:32.004Z,1013.47
2023-02-02T02:51:31.988Z,1013.42
2023-02-02T02:52:31.953Z,1013.45
2023-02-02T02:53:31.933Z,1013.50
2023-02-02T02:54:31.932Z,1013.50
2023-02-02T02:55:31.877Z,1013.51
2023-02-02T02:56:31.841Z,1013.50
2023-02-02T02:57:31.826Z,1013.47
2023-02-02T02:58:31.793Z,1013.53
2023-02-02T02:59:31.763Z,1013.55
2023-02-02T03:00:31.738Z,1013.55
2023-02-02T03:01:31.745Z,1013.53
2023-02-02T03:02:31.704Z,1013.56
2023-02-02T03:03:31.655Z,1013.50
2023-02-02T03:04:31.637Z,1013.51
2023-02-02T03:05:31.607Z,1013.50
2023-02-02T03:06:31.579Z,1013.48
2023-02-02T03:07:31.545Z,1013.48
2023-02-02T03:08:31.521Z,1013.51
2023-02-02T03:09:31.493Z,1013.47
2023-02-02T03:10:31.488Z,1013.46
2023-02-02T03:11:31.441Z,1013.49
2023-02-02T03:12:31.418Z,1013.48
2023-02-02T03:13:31.402Z,1013.50
2023-02-02T03:14:31.361Z,1013.49
2023-02-02T03:15:31.348Z,1013.46
2023-02-02T03:16:31.310Z,1013.49
2023-02-02T03:17:31.276Z,1013.46
2023-02-02T03:18:31.259Z,1013.48
2023-02-02T03:19:31.222Z,1013.47
2023-02-02T03:20:31.198Z,1013.43
2023-02-02T03:21:31.171Z,1013.44
2023-02-02T03:22:31.147Z,1013.42
2023-02-02T03:23:31.114Z,1013.42
2023-02-02T03:24:31.094Z,1013.38
2023-02-02T03:25:31.062Z,1013.33
2023-02-02T03:26:31.113Z,1013.32
2023-02-02T03:27:31.019Z,1013.29
2023-02-02T03:28:30.989Z,1013.26
2023-02-02T03:29:30.959Z,1013.25
2023-02-02T03:30:30.948Z,1013.26
2023-02-02T03:31:30.935Z,1013.26
2023-02-02T03:32:30.881Z,1013.26
2023-02-02T03:33:30.852Z,1013.26
2023-02-02T03:34:30.830Z,1013.31
2023-02-02T03:35:30.800Z,1013.35
2023-02-02T03:36:30.776Z,1013.34
2023-02-02T03:37:30.747Z,1013.29
2023-02-02T03:38:30.718Z,1013.30
2023-02-02T03:39:30.695Z,1013.29
2023-02-02T03:40:30.667Z,1013.31
2023-02-02T03:41:30.643Z,1013.31
2023-02-02T03:42:30.635Z,1013.35
2023-02-02T03:43:30.603Z,1013.35
2023-02-02T03:44:30.557Z,1013.33
2023-02-02T03:45:30.529Z,1013.35
2023-02-02T03:46:30.652Z,1013.37
2023-02-02T03:47:30.494Z,1013.37
2023-02-02T03:48:30.452Z,1013.37
2023-02-02T03:49:30.422Z,1013.36
2023-02-02T03:50:30.400Z,1013.34
2023-02-02T03:51:30.384Z,1013.36
2023-02-02T03:52:30.349Z,1013.38
2023-02-02T03:53:30.329Z,1013.37
2023-02-02T03:54:30.299Z,1013.39
2023-02-02T03:55:30.270Z,1013.39
2023-02-02T03:56:30.244Z,1013.42
2023-02-02T03:57:30.207Z,1013.41
2023-02-02T03:58:30.223Z,1013.45
2023-02-02T03:59:30.161Z,1013.44
2023-02-02T04:00:30.165Z,1013.41
2023-02-02T04:01:30.265Z,1013.42
2023-02-02T04:02:30.113Z,1013.40
2023-02-02T04:03:30.053Z,1013.43
2023-02-02T04:04:30.036Z,1013.43
2023-02-02T04:05:30.004Z,1013.38
2023-02-02T04:06:29.971Z,1013.36
2023-02-02T04:07:29.943Z,1013.40
2023-02-02T04:08:29.917Z,1013.40
2023-02-02T04:09:29.888Z,1013.40
2023-02-02T04:10:29.864Z,1013.39
2023-02-02T04:11:29.839Z,1013.39
2023-02-02T04:12:29.811Z,1013.36
2023-02-02T04:13:29.785Z,1013.36
2023-02-02T04:14:29.795Z,1013.39
2023-02-02T04:15:29.727Z,1013.44
2023-02-02T04:16:29.775Z,1013.40
2023-02-02T04:17:29.676Z,1013.39
2023-02-02T04:18:29.668Z,1013.44
2023-02-02T04:19:29.627Z,1013.46
2023-02-02T04:20:29.605Z,1013.49
2023-02-02T04:21:29.577Z,1013.45
2023-02-02T04:22:29.548Z,1013.48
2023-02-02T04:23:29.541Z,1013.47
2023-02-02T04:24:29.498Z,1013.53
2023-02-02T04:25:29.468Z,1013.60
2023-02-02T04:26:29.552Z,1013.53
2023-02-02T04:27:29.410Z,1013.50
2023-02-02T04:28:29.392Z,1013.57
2023-02-02T04:29:29.359Z,1013.57
2023-02-02T04:30:29.360Z,1013.61
2023-02-02T04:31:29.346Z,1013.57
2023-02-02T04:32:29.284Z,1013.60
2023-02-02T04:33:29.262Z,1013.54
2023-02-02T04:34:29.232Z,1013.54
2023-02-02T04:35:29.198Z,1013.53
2023-02-02T04:36:29.183Z,1013.52
2023-02-02T04:37:29.142Z,1013.48
2023-02-02T04:38:29.122Z,1013.45
2023-02-02T04:39:29.090Z,1013.46
2023-02-02T04:40:29.066Z,1013.48
2023-02-02T04:41:29.040Z,1013.55
2023-02-02T04:42:29.013Z,1013.49
2023-02-02T04:43:28.981Z,1013.47
2023-02-02T04:44:28.956Z,1013.44
2023-02-02T04:45:29.024Z,1013.46
2023-02-02T04:46:28.928Z,1013.45
2023-02-02T04:47:28.881Z,1013.50
2023-02-02T04:48:28.885Z,1013.47
2023-02-02T04:49:28.828Z,1013.51
2023-02-02T04:50:28.827Z,1013.53
2023-02-02T04:51:28.768Z,1013.56
2023-02-02T04:52:28.755Z,1013.55
2023-02-02T04:53:28.711Z,1013.56
2023-02-02T04:54:28.695Z,1013.51
2023-02-02T04:55:28.660Z,1013.46
2023-02-02T04:56:28.640Z,1013.47
2023-02-02T04:57:28.617Z,1013.49
2023-02-02T04:58:28.583Z,1013.45
2023-02-02T04:59:28.556Z,1013.46
2023-02-02T05:00:28.530Z,1013.44
2023-02-02T05:01:28.522Z,1013.43
2023-02-02T05:02:28.498Z,1013.45
2023-02-02T05:03:28.447Z,1013.45
2023-02-02T05:04:28.490Z,1013.42
2023-02-02T05:05:28.409Z,1013.42
2023-02-02T05:06:28.378Z,1013.49
2023-02-02T05:07:28.338Z,1013.49
2023-02-02T05:08:28.319Z,1013.46
2023-02-02T05:09:28.285Z,1013.44
2023-02-02T05:10:28.261Z,1013.44
2023-02-02T05:11:28.257Z,1013.42
2023-02-02T05:12:28.211Z,1013.45
2023-02-02T05:13:28.176Z,1013.51
2023-02-02T05:14:28.162Z,1013.59
2023-02-02T05:15:28.125Z,1013.59
2023-02-02T05:16:29.216Z,1013.63
2023-02-02T05:17:28.080Z,1013.60
2023-02-02T05:18:28.072Z,1013.60
2023-02-02T05:19:28.021Z,1013.62
2023-02-02T05:20:28.009Z,1013.60
2023-02-02T05:21:27.970Z,1013.62
2023-02-02T05:22:27.959Z,1013.60
2023-02-02T05:23:27.913Z,1013.59
2023-02-02T05:24:27.885Z,1013.59
2023-02-02T05:25:27.997Z,1013.57
2023-02-02T05:26:27.896Z,1013.52
2023-02-02T05:27:27.807Z,1013.51
2023-02-02T05:28:27.780Z,1013.52
2023-02-02T05:29:27.756Z,1013.46
2023-02-02T05:30:27.731Z,1013.49
2023-02-02T05:31:27.766Z,1013.51
2023-02-02T05:32:27.673Z,1013.52
2023-02-02T05:33:27.641Z,1013.55
2023-02-02T05:34:27.643Z,1013.57
2023-02-02T05:35:27.794Z,1013.54
2023-02-02T05:36:27.573Z,1013.56
2023-02-02T05:37:27.535Z,1013.59
2023-02-02T05:38:27.511Z,1013.59
2023-02-02T05:39:27.508Z,1013.62
2023-02-02T05:40:27.465Z,1013.62
2023-02-02T05:41:27.433Z,1013.60
2023-02-02T05:42:27.409Z,1013.61
2023-02-02T05:43:27.376Z,1013.61
2023-02-02T05:44:27.360Z,1013.63
2023-02-02T05:45:27.480Z,1013.57
2023-02-02T05:46:27.305Z,1013.58
2023-02-02T05:47:27.278Z,1013.58
2023-02-02T05:48:27.247Z,1013.59
2023-02-02T05:49:27.217Z,1013.60
2023-02-02T05:50:27.210Z,1013.62
2023-02-02T05:51:27.165Z,1013.62
2023-02-02T05:52:27.149Z,1013.64
2023-02-02T05:53:27.119Z,1013.60
2023-02-02T05:54:27.084Z,1013.67
2023-02-02T05:55:27.247Z,1013.67
2023-02-02T05:56:27.042Z,1013.68
2023-02-02T05:57:27.002Z,1013.67
2023-02-02T05:58:26.984Z,1013.70
2023-02-02T05:59:26.949Z,1013.66
2023-02-02T06:00:26.935Z,1013.70
2023-02-02T06:01:26.901Z,1013.68
2023-02-02T06:02:26.871Z,1013.70
2023-02-02T06:03:26.928Z,1013.71
2023-02-02T06:04:26.822Z,1013.70
2023-02-02T06:05:27.074Z,1013.70
2023-02-02T06:06:26.801Z,1013.73
2023-02-02T06:07:26.737Z,1013.75
2023-02-02T06:08:26.726Z,1013.76
2023-02-02T06:09:26.701Z,1013.78
2023-02-02T06:10:26.659Z,1013.75
2023-02-02T06:11:26.636Z,1013.72
2023-02-02T06:12:26.609Z,1013.67
2023-02-02T06:13:26.572Z,1013.70
2023-02-02T06:14:26.556Z,1013.73
2023-02-02T06:15:26.905Z,1013.75
2023-02-02T06:16:26.500Z,1013.73
2023-02-02T06:17:26.475Z,1013.75
2023-02-02T06:18:26.451Z,1013.73
2023-02-02T06:19:26.417Z,1013.74
2023-02-02T06:20:26.393Z,1013.73
2023-02-02T06:21:26.388Z,1013.70
2023-02-02T06:22:26.363Z,1013.74
2023-02-02T06:23:26.305Z,1013.74
2023-02-02T06:24:26.289Z,1013.69
2023-02-02T06:25:26.600Z,1013.70
2023-02-02T06:26:26.271Z,1013.68
2023-02-02T06:27:26.212Z,1013.66
2023-02-02T06:28:26.177Z,1013.72
2023-02-02T06:29:26.147Z,1013.69
2023-02-02T06:30:26.128Z,1013.70
2023-02-02T06:31:26.268Z,1013.73
2023-02-02T06:32:26.073Z,1013.75
2023-02-02T06:33:26.047Z,1013.76
2023-02-02T06:34:26.030Z,1013.80
2023-02-02T06:35:26.428Z,1013.83
2023-02-02T06:36:25.962Z,1013.82
2023-02-02T06:37:25.946Z,1013.83
2023-02-02T06:38:25.949Z,1013.85
2023-02-02T06:39:25.888Z,1013.83
2023-02-02T06:40:25.862Z,1013.80
2023-02-02T06:41:25.858Z,1013.86
2023-02-02T06:42:25.836Z,1013.87
2023-02-02T06:43:25.780Z,1013.84
2023-02-02T06:44:25.762Z,1013.91
2023-02-02T06:45:26.110Z,1013.92
2023-02-02T06:46:25.742Z,1013.91
2023-02-02T06:47:26.987Z,1013.92
2023-02-02T06:48:25.661Z,1013.94
2023-02-02T06:49:25.638Z,1013.91
2023-02-02T06:50:25.607Z,1013.88
2023-02-02T06:51:25.576Z,1013.89
2023-02-02T06:52:25.545Z,1013.87
2023-02-02T06:53:25.521Z,1013.88
2023-02-02T06:54:25.528Z,1013.86
2023-02-02T06:55:25.916Z,1013.89
2023-02-02T06:56:25.449Z,1013.92
2023-02-02T06:57:25.415Z,1013.90
2023-02-02T06:58:25.395Z,1013.85
2023-02-02T06:59:25.363Z,1013.85
2023-02-02T07:00:25.335Z,1013.85
2023-02-02T07:01:25.316Z,1013.81
2023-02-02T07:02:25.361Z,1013.82
2023-02-02T07:03:25.254Z,1013.80
2023-02-02T07:04:25.227Z,1013.81
2023-02-02T07:05:25.704Z,1013.82
2023-02-02T07:06:25.194Z,1013.79
2023-02-02T07:07:25.153Z,1013.78
2023-02-02T07:08:25.125Z,1013.79
2023-02-02T07:09:25.100Z,1013.78
2023-02-02T07:11:14.057Z,1013.80
2023-02-02T07:11:25.039Z,1013.85
2023-02-02T07:12:25.020Z,1013.84
2023-02-02T07:13:25.001Z,1013.86
2023-02-02T07:14:24.967Z,1013.89
2023-02-02T07:15:25.349Z,1013.91
2023-02-02T07:16:25.000Z,1013.91
2023-02-02T07:17:24.891Z,1013.94
2023-02-02T07:18:24.864Z,1013.89
2023-02-02T07:19:24.835Z,1013.90
2023-02-02T07:20:24.805Z,1013.86
2023-02-02T07:21:24.790Z,1013.86
2023-02-02T07:22:24.755Z,1013.88
2023-02-02T07:23:24.730Z,1013.91
2023-02-02T07:24:24.700Z,1013.90
2023-02-02T07:25:25.071Z,1013.93
2023-02-02T07:26:24.725Z,1013.99
2023-02-02T07:27:24.629Z,1014.07
2023-02-02T07:28:24.595Z,1014.11
2023-02-02T07:29:24.575Z,1014.13
2023-02-02T07:30:24.658Z,1014.10
2023-02-02T07:31:24.571Z,1014.10
2023-02-02T07:32:24.491Z,1014.18
2023-02-02T07:33:24.468Z,1014.28
2023-02-02T07:34:24.448Z,1014.28
2023-02-02T07:35:24.706Z,1014.18
2023-02-02T07:36:24.378Z,1014.18
2023-02-02T07:37:24.359Z,1014.22
2023-02-02T07:38:24.333Z,1014.36
2023-02-02T07:39:24.312Z,1014.29
2023-02-02T07:40:24.280Z,1014.25
2023-02-02T07:41:24.256Z,1014.32
2023-02-02T07:42:24.244Z,1014.38
2023-02-02T07:43:24.203Z,1014.38
2023-02-02T07:44:24.171Z,1014.36
2023-02-02T07:45:26.793Z,1014.34
2023-02-02T07:46:24.136Z,1014.28
2023-02-02T07:47:24.101Z,1014.27
2023-02-02T07:48:24.067Z,1014.36
2023-02-02T07:49:24.041Z,1014.43
2023-02-02T07:50:24.013Z,1014.40
2023-02-02T07:51:23.992Z,1014.34
2023-02-02T07:52:23.991Z,1014.34
2023-02-02T07:53:23.939Z,1014.46
2023-02-02T07:54:23.909Z,1014.57
2023-02-02T07:55:23.880Z,1014.62
2023-02-02T07:56:23.857Z,1014.53
2023-02-02T07:57:23.826Z,1014.52
2023-02-02T07:58:23.818Z,1014.55
2023-02-02T07:59:23.771Z,1014.64
2023-02-02T08:00:23.758Z,1014.63
2023-02-02T08:01:23.834Z,1014.59
2023-02-02T08:02:23.688Z,1014.62
2023-02-02T08:03:23.676Z,1014.60
2023-02-02T08:04:23.643Z,1014.61
2023-02-02T08:05:24.044Z,1014.65
2023-02-02T08:06:23.591Z,1014.61
2023-02-02T08:07:23.563Z,1014.61
2023-02-02T08:08:23.527Z,1014.58
2023-02-02T08:09:23.515Z,1014.65
2023-02-02T08:10:23.471Z,1014.70
2023-02-02T08:11:23.458Z,1014.68
2023-02-02T08:12:24.793Z,1014.68
2023-02-02T08:13:23.399Z,1014.69
2023-02-02T08:14:23.404Z,1014.70
2023-02-02T08:15:23.535Z,1014.67
2023-02-02T08:16:23.375Z,1014.72
2023-02-02T08:17:23.292Z,1014.74
2023-02-02T08:18:23.263Z,1014.75
2023-02-02T08:19:23.242Z,1014.82
2023-02-02T08:20:23.212Z,1014.76
2023-02-02T08:21:23.199Z,1014.76
2023-02-02T08:22:23.154Z,1014.83
2023-02-02T08:23:23.138Z,1014.85
2023-02-02T08:24:23.107Z,1014.85
2023-02-02T08:25:23.425Z,1014.84
2023-02-02T08:26:23.100Z,1014.82
2023-02-02T08:27:23.029Z,1014.84
2023-02-02T08:28:22.990Z,1014.84
2023-02-02T08:29:22.975Z,1014.82
2023-02-02T08:30:22.998Z,1014.86
2023-02-02T08:31:22.939Z,1014.85
2023-02-02T08:32:22.888Z,1014.83
2023-02-02T08:33:22.863Z,1014.84
2023-02-02T08:34:22.835Z,1014.90
2023-02-02T08:35:23.130Z,1014.91
2023-02-02T08:36:22.783Z,1014.94
2023-02-02T08:37:22.773Z,1014.90
2023-02-02T08:38:22.744Z,1014.94
2023-02-02T08:39:22.716Z,1014.91
2023-02-02T08:40:22.710Z,1014.97
2023-02-02T08:41:22.648Z,1014.97
2023-02-02T08:42:22.624Z,1014.96
2023-02-02T08:43:22.594Z,1015.00
2023-02-02T08:44:22.583Z,1015.05
2023-02-02T08:46:01.171Z,1015.07
2023-02-02T08:46:22.832Z,1015.12
2023-02-02T08:47:22.504Z,1015.11
2023-02-02T08:48:22.469Z,1015.12
2023-02-02T08:49:22.438Z,1015.17
2023-02-02T08:50:22.499Z,1015.20
2023-02-02T08:51:22.388Z,1015.16
2023-02-02T08:52:24.803Z,1015.16
2023-02-02T08:53:22.335Z,1015.19
2023-02-02T08:54:22.306Z,1015.22
2023-02-02T08:55:22.418Z,1015.18
2023-02-02T08:56:22.251Z,1015.22
2023-02-02T08:57:22.230Z,1015.28
2023-02-02T08:58:22.195Z,1015.28
2023-02-02T08:59:22.175Z,1015.25
2023-02-02T09:00:22.245Z,1015.30
2023-02-02T09:01:22.245Z,1015.31
2023-02-02T09:02:22.145Z,1015.32
2023-02-02T09:03:22.083Z,1015.36
2023-02-02T09:04:22.042Z,1015.38
2023-02-02T09:05:22.318Z,1015.39
2023-02-02T09:06:21.989Z,1015.42
2023-02-02T09:07:21.961Z,1015.43
2023-02-02T09:08:21.943Z,1015.46
2023-02-02T09:09:21.904Z,1015.47
2023-02-02T09:10:21.882Z,1015.52
2023-02-02T09:11:21.853Z,1015.49
2023-02-02T09:12:21.824Z,1015.55
2023-02-02T09:13:23.334Z,1015.53
2023-02-02T09:14:21.768Z,1015.57
2023-02-02T09:15:22.006Z,1015.58
2023-02-02T09:16:21.790Z,1015.55
2023-02-02T09:17:21.695Z,1015.53
2023-02-02T09:18:21.679Z,1015.51
2023-02-02T09:19:21.648Z,1015.54
2023-02-02T09:20:21.676Z,1015.58
2023-02-02T09:21:21.578Z,1015.55
2023-02-02T09:22:21.556Z,1015.60
2023-02-02T09:23:21.538Z,1015.61
2023-02-02T09:24:21.512Z,1015.62
2023-02-02T09:25:21.489Z,1015.61
2023-02-02T09:26:21.507Z,1015.63
2023-02-02T09:27:21.441Z,1015.61
2023-02-02T09:28:21.404Z,1015.67
2023-02-02T09:29:21.385Z,1015.68
2023-02-02T09:30:21.349Z,1015.69
2023-02-02T09:31:21.361Z,1015.73
2023-02-02T09:32:21.290Z,1015.71
2023-02-02T09:33:21.276Z,1015.71
2023-02-02T09:34:21.263Z,1015.65
2023-02-02T09:35:21.224Z,1015.67
2023-02-02T09:36:21.195Z,1015.68
2023-02-02T09:37:21.160Z,1015.78
2023-02-02T09:38:21.128Z,1015.80
2023-02-02T09:39:21.113Z,1015.83
2023-02-02T09:40:21.077Z,1015.83
2023-02-02T09:41:21.055Z,1015.86
2023-02-02T09:42:21.027Z,1015.83
2023-02-02T09:43:20.999Z,1015.84
2023-02-02T09:44:20.973Z,1015.88
2023-02-02T09:45:20.955Z,1015.93
2023-02-02T09:46:21.007Z,1015.94
2023-02-02T09:47:20.895Z,1015.91
2023-02-02T09:48:20.865Z,1015.89
2023-02-02T09:49:20.848Z,1015.85
2023-02-02T09:50:20.837Z,1015.96
2023-02-02T09:51:20.796Z,1015.94
2023-02-02T09:52:20.759Z,1015.90
2023-02-02T09:53:20.741Z,1015.93
2023-02-02T09:54:20.706Z,1015.99
2023-02-02T09:55:20.686Z,1016.01
2023-02-02T09:56:20.653Z,1016.05
2023-02-02T09:57:20.651Z,1016.09
2023-02-02T09:58:20.613Z,1016.08
2023-02-02T09:59:22.806Z,1016.09
2023-02-02T10:00:20.599Z,1016.15
2023-02-02T10:01:20.585Z,1016.16
2023-02-02T10:02:20.491Z,1016.15
2023-02-02T10:03:20.471Z,1016.19
2023-02-02T10:04:20.449Z,1016.23
2023-02-02T10:05:20.423Z,1016.21
2023-02-02T10:06:20.409Z,1016.22
2023-02-02T10:07:20.366Z,1016.23
2023-02-02T10:08:33.644Z,1016.22
2023-02-02T10:09:20.317Z,1016.25
2023-02-02T10:10:20.353Z,1016.29
2023-02-02T10:11:20.257Z,1016.28
2023-02-02T10:12:20.226Z,1016.29
2023-02-02T10:13:20.202Z,1016.31
2023-02-02T10:14:20.261Z,1016.29
2023-02-02T10:15:20.151Z,1016.29
2023-02-02T10:16:20.254Z,1016.27
2023-02-02T10:17:20.103Z,1016.33
2023-02-02T10:18:20.069Z,1016.34
2023-02-02T10:19:20.043Z,1016.37
2023-02-02T10:20:20.024Z,1016.39
2023-02-02T10:21:19.992Z,1016.42
2023-02-02T10:22:19.986Z,1016.35
2023-02-02T10:23:19.946Z,1016.38
2023-02-02T10:24:19.912Z,1016.37
2023-02-02T10:25:19.888Z,1016.38
2023-02-02T10:26:19.946Z,1016.41
2023-02-02T10:27:19.840Z,1016.39
2023-02-02T10:28:19.810Z,1016.43
2023-02-02T10:29:19.799Z,1016.45
2023-02-02T10:30:19.772Z,1016.45
2023-02-02T10:31:19.808Z,1016.46
2023-02-02T10:32:19.709Z,1016.47
2023-02-02T10:33:19.688Z,1016.56
2023-02-02T10:34:19.654Z,1016.53
2023-02-02T10:35:19.629Z,1016.52
2023-02-02T10:36:19.597Z,1016.53
2023-02-02T10:37:19.579Z,1016.49
2023-02-02T10:38:19.568Z,1016.54
2023-02-02T10:39:19.529Z,1016.47
2023-02-02T10:40:19.508Z,1016.43
2023-02-02T10:41:19.473Z,1016.46
2023-02-02T10:42:19.440Z,1016.49
2023-02-02T10:43:19.418Z,1016.49
2023-02-02T10:44:19.391Z,1016.46
2023-02-02T10:45:19.365Z,1016.45
2023-02-02T10:46:19.377Z,1016.50
2023-02-02T10:47:19.312Z,1016.50
2023-02-02T10:48:19.281Z,1016.54
2023-02-02T10:49:19.256Z,1016.55
2023-02-02T10:50:19.222Z,1016.53
2023-02-02T10:51:19.234Z,1016.58
2023-02-02T10:52:19.193Z,1016.56
2023-02-02T10:53:19.151Z,1016.59
2023-02-02T10:54:19.142Z,1016.55
2023-02-02T10:55:19.101Z,1016.54
2023-02-02T10:56:19.073Z,1016.56
2023-02-02T10:57:19.050Z,1016.61
2023-02-02T10:58:19.026Z,1016.63
2023-02-02T10:59:19.002Z,1016.59
2023-02-02T11:00:22.250Z,1016.58
2023-02-02T11:01:18.964Z,1016.59
2023-02-02T11:02:21.087Z,1016.57
2023-02-02T11:03:18.894Z,1016.62
2023-02-02T11:04:18.861Z,1016.60
2023-02-02T11:05:18.858Z,1016.58
2023-02-02T11:06:18.809Z,1016.67
2023-02-02T11:07:18.782Z,1016.65
2023-02-02T11:08:18.761Z,1016.64
2023-02-02T11:09:18.734Z,1016.62
2023-02-02T11:10:18.735Z,1016.61
2023-02-02T11:11:18.682Z,1016.67
2023-02-02T11:12:18.655Z,1016.75
2023-02-02T11:13:18.629Z,1016.77
2023-02-02T11:14:18.606Z,1016.71
2023-02-02T11:15:18.590Z,1016.74
2023-02-02T11:16:18.598Z,1016.70
2023-02-02T11:17:18.527Z,1016.69
2023-02-02T11:18:18.496Z,1016.66
2023-02-02T11:19:18.489Z,1016.65
2023-02-02T11:20:18.450Z,1016.65
2023-02-02T11:21:18.426Z,1016.62
2023-02-02T11:22:18.386Z,1016.61
2023-02-02T11:23:18.375Z,1016.62
2023-02-02T11:24:18.342Z,1016.67
2023-02-02T11:25:18.333Z,1016.67
2023-02-02T11:26:18.331Z,1016.66
2023-02-02T11:27:18.275Z,1016.66
2023-02-02T11:28:18.231Z,1016.66
2023-02-02T11:29:18.200Z,1016.66
2023-02-02T11:30:18.179Z,1016.70
2023-02-02T11:31:18.215Z,1016.66
2023-02-02T11:32:18.121Z,1016.67
2023-02-02T11:33:18.102Z,1016.66
2023-02-02T11:34:20.464Z,1016.67
2023-02-02T11:35:18.061Z,1016.66
2023-02-02T11:36:18.020Z,1016.64
2023-02-02T11:37:17.988Z,1016.64
2023-02-02T11:38:17.965Z,1016.67
2023-02-02T11:39:17.938Z,1016.67
2023-02-02T11:40:17.920Z,1016.64
2023-02-02T11:41:17.891Z,1016.65
2023-02-02T11:42:17.882Z,1016.68
2023-02-02T11:43:17.839Z,1016.68
2023-02-02T11:44:17.815Z,1016.70
2023-02-02T11:45:17.783Z,1016.73
2023-02-02T11:46:17.820Z,1016.69
2023-02-02T11:47:17.732Z,1016.70
2023-02-02T11:48:17.701Z,1016.68
2023-02-02T11:49:17.676Z,1016.69
2023-02-02T11:50:17.650Z,1016.72
2023-02-02T11:51:17.642Z,1016.69
2023-02-02T11:52:17.602Z,1016.70
2023-02-02T11:53:17.571Z,1016.67
2023-02-02T11:54:17.543Z,1016.75
2023-02-02T11:55:17.517Z,1016.68
2023-02-02T11:56:17.497Z,1016.74
2023-02-02T11:57:17.471Z,1016.72
2023-02-02T11:58:17.469Z,1016.72
2023-02-02T11:59:17.412Z,1016.74
2023-02-02T12:00:17.388Z,1016.72
2023-02-02T12:01:17.364Z,1016.74
2023-02-02T12:02:17.395Z,1016.75
2023-02-02T12:03:17.306Z,1016.73
2023-02-02T12:04:17.434Z,1016.79
2023-02-02T12:05:17.260Z,1016.75